createdAt,value
2018-07-13T05:33:29.413Z,16.80
2018-07-13T05:35:58.067Z,16.70
2018-07-13T05:38:27.612Z,16.70
2018-07-13T05:40:56.293Z,16.80
2018-07-13T05:43:25.926Z,16.70
2018-07-13T05:45:54.610Z,16.70
2018-07-13T05:48:23.265Z,16.80
2018-07-13T05:50:53.658Z,16.80
2018-07-13T05:53:22.262Z,16.90
2018-07-13T05:55:52.274Z,16.90
2018-07-13T05:58:21.947Z,17.00
2018-07-13T06:00:50.572Z,17.10
2018-07-13T06:03:19.301Z,17.30
2018-07-13T06:05:48.314Z,17.40
2018-07-13T06:08:16.936Z,17.70
2018-07-13T06:10:46.268Z,17.90
2018-07-13T06:13:15.763Z,18.10
2018-07-13T06:15:44.473Z,18.30
2018-07-13T06:18:13.340Z,18.40
2018-07-13T06:20:41.898Z,18.50
2018-07-13T06:23:10.472Z,18.60
2018-07-13T06:25:39.030Z,18.70
2018-07-13T06:28:07.648Z,18.80
2018-07-13T06:30:36.216Z,18.70
2018-07-13T06:33:05.287Z,18.80
2018-07-13T06:35:33.836Z,18.90
2018-07-13T06:38:02.512Z,19.20
2018-07-13T06:40:31.188Z,19.30
2018-07-13T06:42:59.761Z,19.30
2018-07-13T06:45:28.434Z,19.40
2018-07-13T06:47:57.454Z,19.50
2018-07-13T06:50:26.075Z,19.60
2018-07-13T06:52:54.699Z,19.80
2018-07-13T06:55:23.290Z,19.90
2018-07-13T06:58:03.143Z,20.00
2018-07-13T07:01:03.744Z,20.10
2018-07-13T07:03:33.974Z,20.20
2018-07-13T07:06:08.039Z,20.20
2018-07-13T07:08:38.205Z,20.10
2018-07-13T07:11:07.506Z,20.00
2018-07-13T07:13:38.531Z,20.00
2018-07-13T07:16:07.445Z,20.10
2018-07-13T07:18:36.382Z,20.00
2018-07-13T07:21:05.085Z,19.80
2018-07-13T07:23:34.300Z,19.70
2018-07-13T07:26:03.543Z,19.70
2018-07-13T07:28:32.480Z,19.80
2018-07-13T07:31:02.274Z,19.80
2018-07-13T07:33:30.824Z,19.90
2018-07-13T07:35:59.397Z,19.90
2018-07-13T07:38:28.986Z,20.00
2018-07-13T07:40:57.570Z,20.00
2018-07-13T07:43:26.511Z,20.00
2018-07-13T07:45:55.100Z,20.00
2018-07-13T07:48:23.702Z,20.20
2018-07-13T07:50:52.270Z,20.30
2018-07-13T07:53:20.822Z,20.30
2018-07-13T07:55:50.638Z,20.30
2018-07-13T07:58:19.206Z,20.30
2018-07-13T08:00:48.416Z,20.30
2018-07-13T08:03:17.136Z,20.40
2018-07-13T08:05:45.706Z,20.50
2018-07-13T08:08:14.253Z,20.70
2018-07-13T08:10:43.841Z,20.90
2018-07-13T08:13:12.434Z,20.90
2018-07-13T08:15:41.006Z,20.90
2018-07-13T08:18:09.538Z,20.90
2018-07-13T08:20:42.730Z,21.10
2018-07-13T08:23:11.362Z,21.10
2018-07-13T08:25:40.698Z,21.10
2018-07-13T08:28:09.438Z,21.20
2018-07-13T08:30:53.422Z,21.30
2018-07-13T08:33:21.998Z,21.40
2018-07-13T08:35:50.579Z,21.50
2018-07-13T08:38:20.134Z,21.60
2018-07-13T08:40:49.164Z,21.80
2018-07-13T08:43:17.787Z,21.90
2018-07-13T08:45:46.446Z,22.20
2018-07-13T08:48:15.034Z,22.40
2018-07-13T08:50:43.725Z,22.80
2018-07-13T08:53:12.411Z,23.00
2018-07-13T08:55:41.074Z,23.20
2018-07-13T08:58:10.075Z,23.20
2018-07-13T09:00:38.747Z,23.10
2018-07-13T09:03:08.370Z,23.20
2018-07-13T09:05:37.003Z,23.50
2018-07-13T09:08:05.598Z,23.50
2018-07-13T09:10:35.740Z,23.70
2018-07-13T09:13:04.435Z,24.10
2018-07-13T09:15:33.002Z,24.40
2018-07-13T09:18:01.730Z,24.70
2018-07-13T09:20:30.495Z,24.80
2018-07-13T09:22:59.317Z,24.70
2018-07-13T09:25:29.003Z,24.80
2018-07-13T09:27:58.087Z,24.80
2018-07-13T09:30:26.664Z,25.10
2018-07-13T09:32:57.176Z,25.20
2018-07-13T09:37:54.115Z,25.40
2018-07-13T09:40:22.766Z,25.40
2018-07-13T09:42:51.385Z,25.50
2018-07-13T09:45:19.964Z,25.90
2018-07-13T09:47:48.521Z,25.80
2018-07-13T09:50:17.547Z,25.90
2018-07-13T09:52:46.217Z,25.80
2018-07-13T09:55:15.035Z,25.50
2018-07-13T10:00:12.959Z,25.50
2018-07-13T10:02:41.626Z,25.40
2018-07-13T10:05:10.428Z,25.30
2018-07-13T10:07:39.340Z,25.30
2018-07-13T10:10:08.232Z,25.20
2018-07-13T10:12:36.849Z,24.80
2018-07-13T10:15:05.498Z,24.60
2018-07-13T10:17:37.311Z,24.70
2018-07-13T10:22:35.900Z,25.00
2018-07-13T10:25:05.071Z,25.10
2018-07-13T10:27:35.659Z,25.10
2018-07-13T10:30:05.292Z,25.20
2018-07-13T10:32:34.030Z,25.10
2018-07-13T10:35:03.997Z,25.20
2018-07-13T10:37:32.639Z,25.20
2018-07-13T10:42:29.631Z,25.50
2018-07-13T10:44:58.218Z,25.50
2018-07-13T10:47:27.213Z,25.70
2018-07-13T10:49:55.803Z,25.90
2018-07-13T10:52:24.370Z,25.90
2018-07-13T10:54:55.767Z,26.10
2018-07-13T10:57:24.355Z,26.40
2018-07-13T10:59:54.028Z,26.40
2018-07-13T11:02:22.586Z,26.60
2018-07-13T11:04:51.158Z,26.70
2018-07-13T11:09:47.890Z,27.50
2018-07-13T11:12:17.463Z,27.20
2018-07-13T11:14:47.158Z,27.50
2018-07-13T11:17:15.684Z,27.40
2018-07-13T11:19:44.538Z,27.40
2018-07-13T11:22:13.108Z,27.50
2018-07-13T11:24:41.638Z,27.40
2018-07-13T11:27:11.106Z,27.20
2018-07-13T11:29:39.967Z,27.30
2018-07-13T11:32:08.826Z,27.30
2018-07-13T11:34:38.466Z,27.40
2018-07-13T11:37:08.131Z,27.10
2018-07-13T11:39:37.683Z,26.50
2018-07-13T11:42:06.264Z,26.40
2018-07-13T11:44:35.467Z,26.40
2018-07-13T11:47:04.541Z,26.50
2018-07-13T11:49:33.154Z,26.60
2018-07-13T11:52:02.162Z,26.90
2018-07-13T11:54:30.791Z,27.00
2018-07-13T11:56:59.410Z,27.60
2018-07-13T11:59:28.023Z,28.00
2018-07-13T12:01:56.680Z,29.20
2018-07-13T12:04:25.288Z,30.20
2018-07-13T12:06:53.837Z,30.70
2018-07-13T12:09:22.391Z,31.30
2018-07-13T12:11:50.967Z,32.20
2018-07-13T12:14:19.540Z,32.60
2018-07-13T12:16:48.096Z,32.20
2018-07-13T12:19:16.661Z,31.40
2018-07-13T12:21:45.198Z,30.60
2018-07-13T12:24:13.756Z,30.00
2018-07-13T12:26:42.338Z,30.80
2018-07-13T12:29:10.944Z,29.50
2018-07-13T12:31:39.696Z,29.40
2018-07-13T12:34:08.314Z,29.90
2018-07-13T12:36:36.905Z,30.10
2018-07-13T12:39:06.561Z,29.80
2018-07-13T12:41:41.431Z,29.30
2018-07-13T12:44:16.641Z,28.80
2018-07-13T12:46:45.344Z,28.20
2018-07-13T12:49:14.617Z,28.00
2018-07-13T12:51:43.390Z,29.10
2018-07-13T12:54:12.231Z,29.30
2018-07-13T12:56:40.575Z,28.90
2018-07-13T12:59:09.131Z,28.50
2018-07-13T13:01:37.718Z,28.20
2018-07-13T13:04:06.274Z,28.90
2018-07-13T13:06:34.806Z,30.10
2018-07-13T13:09:04.446Z,31.20
2018-07-13T13:11:33.016Z,31.70
2018-07-13T13:16:29.863Z,32.00
2018-07-13T13:18:58.387Z,32.10
2018-07-13T13:21:26.918Z,32.00
2018-07-13T13:23:55.578Z,32.50
2018-07-13T13:26:24.870Z,32.90
2018-07-13T13:28:53.447Z,32.40
2018-07-13T13:31:22.051Z,31.60
2018-07-13T13:33:51.234Z,30.80
2018-07-13T13:36:19.902Z,30.20
2018-07-13T13:38:49.399Z,29.70
2018-07-13T13:41:17.955Z,29.10
2018-07-13T13:43:46.878Z,28.60
2018-07-13T13:46:16.422Z,28.10
2018-07-13T13:48:44.972Z,27.70
2018-07-13T13:51:14.240Z,27.50
2018-07-13T13:53:43.439Z,27.10
2018-07-13T13:56:12.962Z,27.00
2018-07-13T13:58:41.754Z,26.90
2018-07-13T14:01:10.424Z,26.90
2018-07-13T14:03:39.033Z,26.80
2018-07-13T14:06:07.610Z,26.90
2018-07-13T14:08:36.198Z,27.10
2018-07-13T14:11:04.747Z,27.10
2018-07-13T14:13:34.010Z,27.40
2018-07-13T14:16:03.680Z,27.40
2018-07-13T14:18:32.238Z,27.40
2018-07-13T14:21:00.817Z,27.90
2018-07-13T14:23:29.390Z,28.20
2018-07-13T14:25:57.958Z,28.30
2018-07-13T14:28:26.510Z,28.30
2018-07-13T14:30:55.102Z,28.50
2018-07-13T14:33:23.674Z,28.50
2018-07-13T14:35:52.222Z,28.70
2018-07-13T14:38:20.814Z,28.70
2018-07-13T14:40:50.270Z,29.00
2018-07-13T14:43:18.866Z,28.80
2018-07-13T14:45:47.535Z,28.30
2018-07-13T14:48:16.760Z,27.70
2018-07-13T14:50:45.352Z,27.60
2018-07-13T14:53:14.214Z,27.50
2018-07-13T14:55:42.808Z,27.30
2018-07-13T14:58:11.381Z,27.20
2018-07-13T15:00:39.949Z,27.20
2018-07-13T15:03:08.516Z,27.10
2018-07-13T15:05:37.098Z,27.60
2018-07-13T15:08:05.749Z,28.40
2018-07-13T15:10:34.452Z,28.60
2018-07-13T15:13:03.282Z,28.50
2018-07-13T15:15:31.892Z,28.10
2018-07-13T15:20:40.147Z,27.90
2018-07-13T15:23:09.518Z,27.80
2018-07-13T15:25:38.075Z,27.70
2018-07-13T15:28:06.629Z,27.90
2018-07-13T15:30:35.168Z,28.30
2018-07-13T15:33:04.606Z,29.00
2018-07-13T15:35:33.178Z,29.30
2018-07-13T15:38:01.748Z,29.30
2018-07-13T15:40:30.278Z,29.00
2018-07-13T15:42:59.653Z,28.60
2018-07-13T15:45:28.262Z,28.40
2018-07-13T15:47:57.811Z,28.00
2018-07-13T15:50:26.690Z,28.00
2018-07-13T15:52:55.242Z,27.90
2018-07-13T15:55:28.814Z,27.60
2018-07-13T15:57:57.371Z,27.20
2018-07-13T16:00:27.259Z,27.00
2018-07-13T16:02:55.823Z,26.90
2018-07-13T16:05:24.428Z,26.60
2018-07-13T16:07:53.346Z,26.70
2018-07-13T16:10:21.910Z,26.80
2018-07-13T16:12:50.531Z,26.60
2018-07-13T16:15:19.094Z,26.60
2018-07-13T16:17:47.678Z,26.50
2018-07-13T16:20:16.234Z,26.30
2018-07-13T16:22:44.811Z,25.90
2018-07-13T16:25:13.474Z,25.90
2018-07-13T16:27:42.330Z,26.00
2018-07-13T16:30:11.571Z,26.40
2018-07-13T16:32:40.145Z,27.00
2018-07-13T16:35:09.835Z,27.70
2018-07-13T16:37:38.383Z,28.00
2018-07-13T16:40:06.958Z,28.20
2018-07-13T16:42:35.528Z,28.60
2018-07-13T16:45:06.259Z,29.00
2018-07-13T16:47:41.519Z,29.10
2018-07-13T16:50:10.203Z,29.00
2018-07-13T16:52:39.792Z,28.60
2018-07-13T16:55:08.369Z,28.40
2018-07-13T16:57:36.898Z,28.00
2018-07-13T17:00:06.058Z,27.70
2018-07-13T17:02:34.689Z,27.40
2018-07-13T17:05:04.242Z,27.10
2018-07-13T17:07:32.811Z,26.80
2018-07-13T17:10:01.415Z,26.70
2018-07-13T17:12:29.998Z,26.40
2018-07-13T17:14:58.578Z,26.20
2018-07-13T17:17:27.162Z,26.00
2018-07-13T17:19:56.714Z,25.90
2018-07-13T17:22:25.967Z,25.70
2018-07-13T17:24:55.277Z,25.50
2018-07-13T17:27:25.289Z,25.40
2018-07-13T17:29:53.870Z,25.30
2018-07-13T17:32:22.464Z,25.10
2018-07-13T17:34:51.020Z,25.00
2018-07-13T17:37:21.539Z,24.80
2018-07-13T17:39:50.170Z,24.80
2018-07-13T17:42:18.858Z,24.90
2018-07-13T17:44:47.542Z,24.80
2018-07-13T17:47:16.151Z,24.60
2018-07-13T17:49:44.834Z,24.60
2018-07-13T17:52:13.390Z,24.60
2018-07-13T17:57:10.531Z,24.40
2018-07-13T17:59:39.103Z,24.50
2018-07-13T18:02:07.786Z,24.50
2018-07-13T18:04:37.355Z,24.70
2018-07-13T18:07:06.554Z,24.70
2018-07-13T18:09:35.174Z,24.80
2018-07-13T18:12:03.739Z,24.70
2018-07-13T18:14:32.316Z,24.60
2018-07-13T18:17:00.928Z,24.60
2018-07-13T18:19:30.306Z,24.50
2018-07-13T18:21:59.126Z,24.40
2018-07-13T18:24:28.428Z,24.30
2018-07-13T18:26:57.631Z,24.20
2018-07-13T18:29:26.570Z,24.00
2018-07-13T18:31:55.173Z,23.90
2018-07-13T18:34:23.702Z,23.90
2018-07-13T18:36:52.635Z,23.80
2018-07-13T18:39:21.278Z,23.70
2018-07-13T18:41:49.915Z,23.60
2018-07-13T18:44:18.562Z,23.70
2018-07-13T18:46:48.207Z,23.50
2018-07-13T18:49:16.790Z,23.30
2018-07-13T18:51:45.339Z,23.30
2018-07-13T18:54:15.047Z,23.20
2018-07-13T18:59:11.812Z,23.00
2018-07-13T19:01:40.381Z,22.90
2018-07-13T19:04:08.976Z,22.80
2018-07-13T19:06:37.565Z,22.80
2018-07-13T19:09:07.729Z,22.60
2018-07-13T19:11:36.260Z,22.60
2018-07-13T19:14:04.830Z,22.30
2018-07-13T19:16:33.416Z,22.10
2018-07-13T19:19:02.085Z,22.10
2018-07-13T19:21:30.658Z,22.00
2018-07-13T19:23:59.265Z,21.90
2018-07-13T19:26:27.814Z,22.00
2018-07-13T19:28:56.418Z,22.00
2018-07-13T19:31:25.017Z,21.80
2018-07-13T19:33:53.651Z,21.70
2018-07-13T19:36:22.270Z,21.60
2018-07-13T19:38:50.818Z,21.50
2018-07-13T19:41:19.810Z,21.40
2018-07-13T19:43:48.476Z,21.40
2018-07-13T19:46:17.101Z,21.30
2018-07-13T19:48:45.657Z,21.20
2018-07-13T19:51:14.505Z,21.20
2018-07-13T19:53:43.186Z,21.20
2018-07-13T19:56:12.092Z,21.10
2018-07-13T19:58:40.726Z,21.00
2018-07-13T20:01:10.444Z,21.10
2018-07-13T20:03:39.092Z,21.00
2018-07-13T20:06:07.702Z,20.90
2018-07-13T20:08:36.362Z,20.80
2018-07-13T20:11:05.032Z,20.70
2018-07-13T20:13:33.615Z,20.70
2018-07-13T20:16:02.216Z,20.50
2018-07-13T20:18:30.843Z,20.50
2018-07-13T20:20:59.458Z,20.50
2018-07-13T20:23:28.010Z,20.40
2018-07-13T20:25:56.577Z,20.30
2018-07-13T20:28:26.750Z,20.30
2018-07-13T20:30:55.313Z,20.30
2018-07-13T20:33:25.396Z,20.30
2018-07-13T20:35:54.047Z,20.30
2018-07-13T20:38:22.643Z,20.20
2018-07-13T20:40:52.194Z,20.30
2018-07-13T20:43:20.774Z,20.20
2018-07-13T20:45:49.390Z,20.10
2018-07-13T20:48:18.576Z,20.20
2018-07-13T20:50:47.738Z,20.10
2018-07-13T20:53:16.327Z,20.10
2018-07-13T20:55:44.883Z,20.20
2018-07-13T20:58:13.878Z,20.30
2018-07-13T21:00:42.823Z,20.40
2018-07-13T21:03:11.387Z,20.40
2018-07-13T21:05:39.981Z,20.20
2018-07-13T21:08:08.567Z,20.10
2018-07-13T21:10:40.358Z,20.10
2018-07-13T21:13:08.974Z,20.00
2018-07-13T21:15:44.184Z,20.00
2018-07-13T21:18:12.908Z,19.90
2018-07-13T21:20:41.470Z,19.90
2018-07-13T21:23:11.649Z,20.00
2018-07-13T21:25:40.539Z,20.00
2018-07-13T21:28:09.140Z,19.90
2018-07-13T21:30:37.753Z,19.90
2018-07-13T21:33:06.325Z,19.70
2018-07-13T21:35:34.935Z,19.70
2018-07-13T21:38:05.474Z,19.60
2018-07-13T21:40:34.389Z,19.50
2018-07-13T21:43:02.997Z,19.40
2018-07-13T21:45:31.554Z,19.30
2018-07-13T21:48:01.435Z,19.20
2018-07-13T21:50:30.062Z,19.00
2018-07-13T21:52:58.618Z,18.90
2018-07-13T21:55:27.259Z,18.90
2018-07-13T21:57:55.935Z,18.90
2018-07-13T22:00:24.592Z,18.90
2018-07-13T22:02:53.224Z,18.80
2018-07-13T22:05:21.839Z,18.70
2018-07-13T22:07:50.683Z,18.90
2018-07-13T22:10:20.163Z,18.90
2018-07-13T22:12:48.743Z,18.90
2018-07-13T22:15:18.579Z,18.80
2018-07-13T22:17:47.198Z,18.80
2018-07-13T22:20:16.584Z,18.70
2018-07-13T22:22:45.149Z,18.50
2018-07-13T22:25:13.879Z,18.60
2018-07-13T22:27:43.742Z,18.70
2018-07-13T22:30:12.386Z,18.60
2018-07-13T22:32:41.010Z,18.50
2018-07-13T22:35:09.563Z,18.40
2018-07-13T22:37:38.125Z,18.40
2018-07-13T22:40:07.634Z,18.40
2018-07-13T22:42:37.075Z,18.30
2018-07-13T22:45:07.147Z,18.30
2018-07-13T22:47:35.847Z,18.30
2018-07-13T22:50:04.721Z,18.40
2018-07-13T22:52:33.655Z,18.50
2018-07-13T22:55:03.593Z,18.50
2018-07-13T22:57:32.712Z,18.40
2018-07-13T23:00:05.643Z,18.40
2018-07-13T23:17:38.618Z,17.80
2018-07-13T23:20:07.319Z,17.90
2018-07-13T23:22:38.623Z,17.90
2018-07-13T23:25:08.022Z,17.90
2018-07-13T23:30:17.578Z,17.80
2018-07-13T23:32:50.819Z,17.80
2018-07-13T23:35:24.669Z,17.80
2018-07-13T23:37:59.925Z,17.70
2018-07-13T23:40:35.465Z,17.70
2018-07-13T23:43:09.294Z,17.70
2018-07-13T23:45:40.863Z,17.60
2018-07-13T23:48:12.679Z,17.70
2018-07-13T23:50:44.226Z,17.80
2018-07-13T23:53:12.930Z,17.80
2018-07-13T23:55:41.532Z,17.70
2018-07-13T23:58:10.093Z,17.70
